sensor_id;sensor_type;location;lat;lon;timestamp;temperature;humidity
18169;DHT22;49877;50.398;30.324;2022-12-18T02:33:06;-1.60;99.90
18169;DHT22;49877;50.398;30.324;2022-12-18T02:35:36;-1.50;99.90
18169;DHT22;49877;50.398;30.324;2022-12-18T02:38:04;-1.40;99.90
18169;DHT22;49877;50.398;30.324;2022-12-18T02:40:32;-1.40;99.90
18169;DHT22;49877;50.398;30.324;2022-12-18T02:43:03;-1.30;99.90
18169;DHT22;49877;50.398;30.324;2022-12-18T02:45:30;-1.20;99.90
18169;DHT22;49877;50.398;30.324;2022-12-18T02:47:57;-1.20;99.90
18169;DHT22;49877;50.398;30.324;2022-12-18T02:50:30;-1.20;99.90
18169;DHT22;49877;50.398;30.324;2022-12-18T02:53:06;-1.20;99.90
18169;DHT22;49877;50.398;30.324;2022-12-18T02:55:49;-1.30;99.90
18169;DHT22;49877;50.398;30.324;2022-12-18T02:58:23;-1.20;99.90
18169;DHT22;49877;50.398;30.324;2022-12-18T03:00:55;-1.20;99.90
18169;DHT22;49877;50.398;30.324;2022-12-18T03:03:28;-1.20;99.90
18169;DHT22;49877;50.398;30.324;2022-12-18T03:06:02;-1.10;99.90
18169;DHT22;49877;50.398;30.324;2022-12-18T03:08:33;-1.10;99.90
18169;DHT22;49877;50.398;30.324;2022-12-18T03:11:04;-1.10;99.90
18169;DHT22;49877;50.398;30.324;2022-12-18T03:13:34;-1.10;99.90
18169;DHT22;49877;50.398;30.324;2022-12-18T03:16:05;-1.20;99.90
18169;DHT22;49877;50.398;30.324;2022-12-18T03:18:36;-1.20;99.90
18169;DHT22;49877;50.398;30.324;2022-12-18T03:21:08;-1.30;99.90
18169;DHT22;49877;50.398;30.324;2022-12-18T03:23:40;-1.30;99.90
18169;DHT22;49877;50.398;30.324;2022-12-18T03:26:13;-1.30;99.90
18169;DHT22;49877;50.398;30.324;2022-12-18T03:28:44;-1.30;99.90
18169;DHT22;49877;50.398;30.324;2022-12-18T03:31:13;-1.30;99.90
18169;DHT22;49877;50.398;30.324;2022-12-18T03:33:43;-1.30;99.90
18169;DHT22;49877;50.398;30.324;2022-12-18T03:36:13;-1.30;99.90
18169;DHT22;49877;50.398;30.324;2022-12-18T03:38:40;-1.30;99.90
18169;DHT22;49877;50.398;30.324;2022-12-18T03:41:11;-1.30;99.90
18169;DHT22;49877;50.398;30.324;2022-12-18T03:43:48;-1.40;99.90
18169;DHT22;49877;50.398;30.324;2022-12-18T03:46:23;-1.40;99.90
18169;DHT22;49877;50.398;30.324;2022-12-18T03:48:58;-1.50;99.90
18169;DHT22;49877;50.398;30.324;2022-12-18T03:51:33;-1.50;99.90
18169;DHT22;49877;50.398;30.324;2022-12-18T03:54:03;-1.50;99.90
18169;DHT22;49877;50.398;30.324;2022-12-18T03:56:32;-1.50;99.90
18169;DHT22;49877;50.398;30.324;2022-12-18T03:59:01;-1.50;99.90
18169;DHT22;49877;50.398;30.324;2022-12-18T04:01:31;-1.50;99.90
18169;DHT22;49877;50.398;30.324;2022-12-18T04:04:01;-1.60;99.90
18169;DHT22;49877;50.398;30.324;2022-12-18T04:06:30;-1.60;99.90
18169;DHT22;49877;50.398;30.324;2022-12-18T04:09:04;-1.60;99.90
18169;DHT22;49877;50.398;30.324;2022-12-18T04:11:31;-1.60;99.90
18169;DHT22;49877;50.398;30.324;2022-12-18T04:13:58;-1.60;99.90
18169;DHT22;49877;50.398;30.324;2022-12-18T04:16:25;-1.60;99.90
18169;DHT22;49877;50.398;30.324;2022-12-18T04:18:52;-1.70;99.90
18169;DHT22;49877;50.398;30.324;2022-12-18T04:21:19;-1.70;99.90
18169;DHT22;49877;50.398;30.324;2022-12-18T04:23:48;-1.70;99.90
18169;DHT22;49877;50.398;30.324;2022-12-18T04:26:15;-1.70;99.90
18169;DHT22;49877;50.398;30.324;2022-12-18T04:28:41;-1.70;99.90
18169;DHT22;49877;50.398;30.324;2022-12-18T04:31:08;-1.70;99.90
18169;DHT22;49877;50.398;30.324;2022-12-18T04:33:35;-1.70;99.90
18169;DHT22;49877;50.398;30.324;2022-12-18T04:36:02;-1.70;99.90
18169;DHT22;49877;50.398;30.324;2022-12-18T04:38:29;-1.80;99.90
18169;DHT22;49877;50.398;30.324;2022-12-18T04:40:57;-1.80;99.90
18169;DHT22;49877;50.398;30.324;2022-12-18T04:43:24;-1.80;99.90
18169;DHT22;49877;50.398;30.324;2022-12-18T04:45:51;-1.80;99.90
18169;DHT22;49877;50.398;30.324;2022-12-18T04:48:17;-1.80;99.90
18169;DHT22;49877;50.398;30.324;2022-12-18T04:50:46;-1.80;99.90
18169;DHT22;49877;50.398;30.324;2022-12-18T04:53:13;-1.80;99.90
18169;DHT22;49877;50.398;30.324;2022-12-18T04:55:40;-1.80;99.90
18169;DHT22;49877;50.398;30.324;2022-12-18T04:58:08;-1.90;99.90
18169;DHT22;49877;50.398;30.324;2022-12-18T05:00:34;-1.90;99.90
18169;DHT22;49877;50.398;30.324;2022-12-18T05:03:02;-1.90;99.90
18169;DHT22;49877;50.398;30.324;2022-12-18T05:05:28;-1.90;99.90
18169;DHT22;49877;50.398;30.324;2022-12-18T05:07:55;-1.90;99.90
18169;DHT22;49877;50.398;30.324;2022-12-18T05:10:22;-2.00;99.90
18169;DHT22;49877;50.398;30.324;2022-12-18T05:12:49;-2.00;99.90
18169;DHT22;49877;50.398;30.324;2022-12-18T05:15:34;-2.00;99.90
18169;DHT22;49877;50.398;30.324;2022-12-18T05:18:01;-2.00;99.90
18169;DHT22;49877;50.398;30.324;2022-12-18T05:20:28;-2.00;99.90
18169;DHT22;49877;50.398;30.324;2022-12-18T05:22:56;-2.00;99.90
18169;DHT22;49877;50.398;30.324;2022-12-18T05:25:23;-2.00;99.90
18169;DHT22;49877;50.398;30.324;2022-12-18T05:27:50;-2.00;99.90
18169;DHT22;49877;50.398;30.324;2022-12-18T05:30:17;-2.10;99.90
18169;DHT22;49877;50.398;30.324;2022-12-18T05:32:45;-2.10;99.90
18169;DHT22;49877;50.398;30.324;2022-12-18T05:35:12;-2.10;99.90
18169;DHT22;49877;50.398;30.324;2022-12-18T05:37:38;-2.10;99.90
18169;DHT22;49877;50.398;30.324;2022-12-18T05:40:06;-2.20;99.90
18169;DHT22;49877;50.398;30.324;2022-12-18T05:42:33;-2.10;99.90
18169;DHT22;49877;50.398;30.324;2022-12-18T05:45:00;-2.10;99.90
18169;DHT22;49877;50.398;30.324;2022-12-18T05:47:27;-2.20;99.90
18169;DHT22;49877;50.398;30.324;2022-12-18T05:49:55;-2.20;99.90
18169;DHT22;49877;50.398;30.324;2022-12-18T05:52:22;-2.20;99.90
18169;DHT22;49877;50.398;30.324;2022-12-18T05:54:50;-2.20;99.90
18169;DHT22;49877;50.398;30.324;2022-12-18T05:57:16;-2.20;99.90
18169;DHT22;49877;50.398;30.324;2022-12-18T05:59:43;-2.20;99.90
18169;DHT22;49877;50.398;30.324;2022-12-18T06:02:10;-2.30;99.90
18169;DHT22;49877;50.398;30.324;2022-12-18T06:04:37;-2.30;99.90
18169;DHT22;49877;50.398;30.324;2022-12-18T06:07:05;-2.30;99.90
18169;DHT22;49877;50.398;30.324;2022-12-18T06:09:32;-2.30;99.90
18169;DHT22;49877;50.398;30.324;2022-12-18T06:11:59;-2.40;99.90
18169;DHT22;49877;50.398;30.324;2022-12-18T06:14:26;-2.30;99.90
18169;DHT22;49877;50.398;30.324;2022-12-18T06:16:52;-2.30;99.90
18169;DHT22;49877;50.398;30.324;2022-12-18T10:13:22;-3.30;99.90
18169;DHT22;49877;50.398;30.324;2022-12-18T10:15:58;-3.30;99.90
18169;DHT22;49877;50.398;30.324;2022-12-18T10:18:45;-3.20;99.90
18169;DHT22;49877;50.398;30.324;2022-12-18T10:21:19;-3.10;99.90
18169;DHT22;49877;50.398;30.324;2022-12-18T10:23:55;-3.00;99.90
18169;DHT22;49877;50.398;30.324;2022-12-18T10:26:25;-2.90;99.90
18169;DHT22;49877;50.398;30.324;2022-12-18T10:28:53;-3.00;99.90
18169;DHT22;49877;50.398;30.324;2022-12-18T10:31:23;-3.00;99.90
18169;DHT22;49877;50.398;30.324;2022-12-18T10:33:51;-3.00;99.90
18169;DHT22;49877;50.398;30.324;2022-12-18T10:36:20;-2.90;99.90
18169;DHT22;49877;50.398;30.324;2022-12-18T10:38:46;-2.90;99.90
18169;DHT22;49877;50.398;30.324;2022-12-18T10:41:24;-2.90;99.90
18169;DHT22;49877;50.398;30.324;2022-12-18T10:44:12;-2.80;99.90
18169;DHT22;49877;50.398;30.324;2022-12-18T10:46:39;-2.80;99.90
18169;DHT22;49877;50.398;30.324;2022-12-18T10:49:19;-2.80;99.90
18169;DHT22;49877;50.398;30.324;2022-12-18T10:51:46;-2.80;99.90
18169;DHT22;49877;50.398;30.324;2022-12-18T10:54:15;-2.90;99.90
18169;DHT22;49877;50.398;30.324;2022-12-18T10:56:43;-2.90;99.90
18169;DHT22;49877;50.398;30.324;2022-12-18T10:59:13;-2.80;99.90
18169;DHT22;49877;50.398;30.324;2022-12-18T11:01:49;-2.80;99.90
18169;DHT22;49877;50.398;30.324;2022-12-18T11:04:19;-2.80;99.90
18169;DHT22;49877;50.398;30.324;2022-12-18T11:06:57;-2.90;99.90
18169;DHT22;49877;50.398;30.324;2022-12-18T11:09:26;-2.90;99.90
18169;DHT22;49877;50.398;30.324;2022-12-18T11:11:55;-2.90;99.90
18169;DHT22;49877;50.398;30.324;2022-12-18T11:14:25;-2.90;99.90
18169;DHT22;49877;50.398;30.324;2022-12-18T11:16:53;-2.90;99.90
18169;DHT22;49877;50.398;30.324;2022-12-18T11:19:32;-2.90;99.90
18169;DHT22;49877;50.398;30.324;2022-12-18T11:21:59;-2.90;99.90
18169;DHT22;49877;50.398;30.324;2022-12-18T11:24:29;-3.00;99.90
18169;DHT22;49877;50.398;30.324;2022-12-18T11:26:59;-2.90;99.90
18169;DHT22;49877;50.398;30.324;2022-12-18T11:29:32;-2.90;99.90
18169;DHT22;49877;50.398;30.324;2022-12-18T11:32:25;-2.90;99.90
18169;DHT22;49877;50.398;30.324;2022-12-18T11:34:59;-2.90;99.90
18169;DHT22;49877;50.398;30.324;2022-12-18T11:37:28;-3.00;99.90
18169;DHT22;49877;50.398;30.324;2022-12-18T11:39:57;-3.00;99.90
18169;DHT22;49877;50.398;30.324;2022-12-18T11:42:30;-3.00;99.90
18169;DHT22;49877;50.398;30.324;2022-12-18T11:45:08;-3.10;99.90
18169;DHT22;49877;50.398;30.324;2022-12-18T11:47:48;-3.00;99.90
18169;DHT22;49877;50.398;30.324;2022-12-18T11:50:21;-3.00;99.90
18169;DHT22;49877;50.398;30.324;2022-12-18T11:52:50;-3.00;99.90
18169;DHT22;49877;50.398;30.324;2022-12-18T11:55:30;-3.00;99.90
18169;DHT22;49877;50.398;30.324;2022-12-18T11:58:05;-3.00;99.90
18169;DHT22;49877;50.398;30.324;2022-12-18T12:00:39;-3.00;99.90
18169;DHT22;49877;50.398;30.324;2022-12-18T12:06:32;-2.90;99.90
18169;DHT22;49877;50.398;30.324;2022-12-18T12:09:09;-2.90;99.90
18169;DHT22;49877;50.398;30.324;2022-12-18T12:11:49;-2.90;99.90
18169;DHT22;49877;50.398;30.324;2022-12-18T12:14:28;-2.90;99.90
18169;DHT22;49877;50.398;30.324;2022-12-18T12:17:07;-2.90;99.90
18169;DHT22;49877;50.398;30.324;2022-12-18T12:19:45;-2.80;99.90
18169;DHT22;49877;50.398;30.324;2022-12-18T12:22:21;-2.80;99.90
18169;DHT22;49877;50.398;30.324;2022-12-18T12:25:00;-2.80;99.90
18169;DHT22;49877;50.398;30.324;2022-12-18T12:27:36;-2.80;99.90
18169;DHT22;49877;50.398;30.324;2022-12-18T12:30:08;-2.80;99.90
18169;DHT22;49877;50.398;30.324;2022-12-18T12:32:49;-2.90;99.90
18169;DHT22;49877;50.398;30.324;2022-12-18T12:35:29;-2.90;99.90
18169;DHT22;49877;50.398;30.324;2022-12-18T12:38:07;-2.90;99.90
18169;DHT22;49877;50.398;30.324;2022-12-18T12:40:36;-2.90;99.90
18169;DHT22;49877;50.398;30.324;2022-12-18T12:43:13;-3.00;99.90
18169;DHT22;49877;50.398;30.324;2022-12-18T12:45:45;-2.90;99.90
18169;DHT22;49877;50.398;30.324;2022-12-18T12:48:22;-2.90;99.90
18169;DHT22;49877;50.398;30.324;2022-12-18T12:50:52;-3.00;99.90
18169;DHT22;49877;50.398;30.324;2022-12-18T12:53:25;-3.00;99.90
18169;DHT22;49877;50.398;30.324;2022-12-18T12:55:53;-3.00;99.90
18169;DHT22;49877;50.398;30.324;2022-12-18T12:58:26;-3.00;99.90
18169;DHT22;49877;50.398;30.324;2022-12-18T13:01:04;-3.00;99.90
18169;DHT22;49877;50.398;30.324;2022-12-18T13:03:43;-3.00;99.90
18169;DHT22;49877;50.398;30.324;2022-12-18T13:06:18;-3.10;99.90
18169;DHT22;49877;50.398;30.324;2022-12-18T13:08:55;-3.00;99.90
18169;DHT22;49877;50.398;30.324;2022-12-18T13:11:32;-3.10;99.90
18169;DHT22;49877;50.398;30.324;2022-12-18T13:14:24;-3.00;99.90
18169;DHT22;49877;50.398;30.324;2022-12-18T13:16:52;-3.00;99.90
18169;DHT22;49877;50.398;30.324;2022-12-18T13:19:40;-3.10;99.90
18169;DHT22;49877;50.398;30.324;2022-12-18T13:22:21;-3.10;99.90
18169;DHT22;49877;50.398;30.324;2022-12-18T13:24:48;-3.10;99.90
18169;DHT22;49877;50.398;30.324;2022-12-18T13:27:46;-3.10;99.90
18169;DHT22;49877;50.398;30.324;2022-12-18T13:30:41;-3.10;99.90
18169;DHT22;49877;50.398;30.324;2022-12-18T13:36:28;-3.10;99.90
18169;DHT22;49877;50.398;30.324;2022-12-18T13:39:30;-3.10;99.90
18169;DHT22;49877;50.398;30.324;2022-12-18T13:45:45;-3.10;99.90
18169;DHT22;49877;50.398;30.324;2022-12-18T13:48:19;-3.20;99.90
18169;DHT22;49877;50.398;30.324;2022-12-18T19:16:02;-5.10;99.90
18169;DHT22;49877;50.398;30.324;2022-12-18T19:18:29;-5.10;99.90
18169;DHT22;49877;50.398;30.324;2022-12-18T19:20:58;-5.10;99.90
18169;DHT22;49877;50.398;30.324;2022-12-18T19:23:25;-5.10;99.90
18169;DHT22;49877;50.398;30.324;2022-12-18T19:25:52;-5.20;99.90
18169;DHT22;49877;50.398;30.324;2022-12-18T19:28:21;-5.20;99.90
18169;DHT22;49877;50.398;30.324;2022-12-18T19:30:51;-5.20;99.90
18169;DHT22;49877;50.398;30.324;2022-12-18T19:33:20;-5.20;99.90
18169;DHT22;49877;50.398;30.324;2022-12-18T19:35:47;-5.10;99.90
18169;DHT22;49877;50.398;30.324;2022-12-18T19:38:14;-5.10;99.90
18169;DHT22;49877;50.398;30.324;2022-12-18T19:40:41;-5.10;99.90
18169;DHT22;49877;50.398;30.324;2022-12-18T19:43:08;-5.10;99.90
18169;DHT22;49877;50.398;30.324;2022-12-18T19:45:35;-5.10;99.90
18169;DHT22;49877;50.398;30.324;2022-12-18T19:48:02;-5.10;99.90
18169;DHT22;49877;50.398;30.324;2022-12-18T19:50:31;-5.00;99.90
18169;DHT22;49877;50.398;30.324;2022-12-18T19:52:57;-5.00;99.90
18169;DHT22;49877;50.398;30.324;2022-12-18T19:55:25;-5.00;99.90
18169;DHT22;49877;50.398;30.324;2022-12-18T19:57:52;-5.00;99.90
18169;DHT22;49877;50.398;30.324;2022-12-18T20:00:18;-5.00;99.90
18169;DHT22;49877;50.398;30.324;2022-12-18T20:02:45;-5.10;99.90
18169;DHT22;49877;50.398;30.324;2022-12-18T20:05:12;-5.10;99.90
18169;DHT22;49877;50.398;30.324;2022-12-18T20:07:40;-5.00;99.90
18169;DHT22;49877;50.398;30.324;2022-12-18T20:10:12;-5.10;99.90
18169;DHT22;49877;50.398;30.324;2022-12-18T20:12:39;-5.10;99.90
18169;DHT22;49877;50.398;30.324;2022-12-18T20:15:07;-5.10;99.90
18169;DHT22;49877;50.398;30.324;2022-12-18T20:17:34;-5.10;99.90
18169;DHT22;49877;50.398;30.324;2022-12-18T20:20:01;-5.10;99.90
18169;DHT22;49877;50.398;30.324;2022-12-18T20:22:28;-5.10;99.90
18169;DHT22;49877;50.398;30.324;2022-12-18T20:24:56;-5.00;99.90
18169;DHT22;49877;50.398;30.324;2022-12-18T20:27:23;-5.00;99.90
18169;DHT22;49877;50.398;30.324;2022-12-18T20:29:49;-5.00;99.90
18169;DHT22;49877;50.398;30.324;2022-12-18T20:32:16;-5.00;99.90
18169;DHT22;49877;50.398;30.324;2022-12-18T20:34:43;-5.10;99.90
18169;DHT22;49877;50.398;30.324;2022-12-18T20:37:10;-5.10;99.90
18169;DHT22;49877;50.398;30.324;2022-12-18T20:39:36;-5.10;99.90
18169;DHT22;49877;50.398;30.324;2022-12-18T20:42:05;-5.10;99.90
18169;DHT22;49877;50.398;30.324;2022-12-18T20:44:31;-5.00;99.90
18169;DHT22;49877;50.398;30.324;2022-12-18T20:46:58;-5.10;99.90
18169;DHT22;49877;50.398;30.324;2022-12-18T20:49:27;-5.10;99.90
